Time;durP1;ratioP1;P1;durP2;ratioP2;P2;SDS_P1;SDS_P2;PMS_P1;PMS_P2;Temp;Humidity;BMP_temperature;BMP_pressure;BME280_temperature;BME280_humidity;BME280_pressure;Samples;Min_cycle;Max_cycle;Signal;HPM_P1;HPM_P2
2021/03/06 00:00:24;;;;;;;4.35;1.90;;;;;;;7.43;53.90;102394.25;5031893;28;20029;-90
2021/03/06 00:02:53;;;;;;;3.28;1.63;;;;;;;7.44;54.48;102390.72;5030682;23;20129;-84
2021/03/06 00:05:20;;;;;;;4.75;2.05;;;;;;;7.45;54.40;102389.84;5012589;28;20411;-83
2021/03/06 00:07:46;;;;;;;4.90;2.20;;;;;;;7.41;55.40;102392.56;5010956;28;20036;-83
2021/03/06 00:10:13;;;;;;;3.80;1.98;;;;;;;7.43;53.49;102396.88;5011286;28;20025;-84
2021/03/06 00:12:44;;;;;;;4.80;2.42;;;;;;;7.42;53.95;102395.13;5012466;28;20453;-84
2021/03/06 00:15:13;;;;;;;6.17;1.93;;;;;;;7.36;54.83;102379.59;5011351;28;20032;-84
2021/03/06 00:17:38;;;;;;;7.47;2.22;;;;;;;7.32;54.61;102378.81;5011207;28;20022;-84
2021/03/06 00:20:05;;;;;;;4.88;2.00;;;;;;;7.34;54.12;102387.47;5012382;28;20542;-84
2021/03/06 00:22:31;;;;;;;5.72;2.30;;;;;;;7.38;54.18;102393.47;5012131;28;20025;-84
2021/03/06 00:24:57;;;;;;;8.27;2.40;;;;;;;7.34;53.64;102391.84;5012292;28;20404;-83
2021/03/06 00:27:22;;;;;;;5.18;2.03;;;;;;;7.35;54.68;102383.13;5012282;28;20100;-84
2021/03/06 00:29:48;;;;;;;6.28;2.00;;;;;;;7.28;54.87;102392.84;5012172;28;20469;-83
2021/03/06 00:32:13;;;;;;;6.60;2.10;;;;;;;7.31;54.71;102391.94;5012004;28;20057;-84
2021/03/06 00:34:39;;;;;;;6.97;2.20;;;;;;;7.37;54.01;102389.16;5012166;28;20471;-83
2021/03/06 00:37:04;;;;;;;5.30;2.45;;;;;;;7.41;54.20;102398.66;5012137;28;20058;-84
2021/03/06 00:39:29;;;;;;;4.28;2.25;;;;;;;7.46;55.03;102401.16;5012231;28;20033;-83
2021/03/06 00:41:55;;;;;;;7.80;2.60;;;;;;;7.46;54.94;102404.63;5012253;28;20369;-83
2021/03/06 00:44:20;;;;;;;6.32;2.05;;;;;;;7.47;53.07;102403.75;5012321;28;20026;-84
2021/03/06 00:46:45;;;;;;;5.05;2.13;;;;;;;7.54;54.47;102397.50;5012007;28;20033;-84
2021/03/06 00:49:14;;;;;;;8.32;2.53;;;;;;;7.51;54.38;102399.31;5011816;28;20048;-84
2021/03/06 00:51:41;;;;;;;3.33;1.95;;;;;;;7.53;55.85;102394.91;5011824;28;20030;-84
2021/03/06 00:54:07;;;;;;;4.65;2.25;;;;;;;7.57;55.04;102403.53;5011962;28;20052;-83
2021/03/06 00:56:32;;;;;;;5.60;2.33;;;;;;;7.59;55.17;102402.59;5011898;28;20472;-84
2021/03/06 00:58:57;;;;;;;11.32;2.58;;;;;;;7.51;55.45;102400.16;5011816;28;20032;-84
2021/03/06 01:01:23;;;;;;;3.65;2.08;;;;;;;7.63;55.18;102404.25;5011189;28;20033;-83
2021/03/06 01:03:48;;;;;;;8.40;3.10;;;;;;;7.63;55.37;102393.78;5012081;28;20034;-83
2021/03/06 01:06:13;;;;;;;6.38;2.95;;;;;;;7.65;55.25;102392.00;5011724;28;20026;-83
2021/03/06 01:08:39;;;;;;;7.78;2.70;;;;;;;7.69;55.59;102395.41;5011919;28;20117;-84
2021/03/06 01:11:04;;;;;;;7.63;3.78;;;;;;;7.72;54.99;102393.56;5011691;28;20053;-84
2021/03/06 01:13:30;;;;;;;3.55;2.58;;;;;;;7.78;56.27;102395.19;5011666;28;20042;-84
2021/03/06 01:15:55;;;;;;;5.28;2.45;;;;;;;7.83;55.93;102401.13;5011886;28;20029;-84
2021/03/06 01:18:21;;;;;;;6.28;2.85;;;;;;;7.74;55.13;102394.41;5010531;28;20037;-84
2021/03/06 01:20:46;;;;;;;7.07;3.55;;;;;;;7.74;55.46;102397.00;5015276;28;20029;-84
2021/03/06 01:23:12;;;;;;;7.85;3.08;;;;;;;7.74;56.26;102401.34;5015392;28;20105;-84
2021/03/06 01:25:38;;;;;;;8.15;2.70;;;;;;;7.75;56.50;102400.47;5030631;28;20472;-84
2021/03/06 01:28:03;;;;;;;6.50;3.00;;;;;;;7.82;56.57;102394.22;5015424;28;20456;-84
2021/03/06 01:30:28;;;;;;;5.38;2.20;;;;;;;7.81;56.44;102396.84;5015315;28;20026;-84
2021/03/06 01:32:54;;;;;;;8.25;2.40;;;;;;;7.82;56.53;102394.22;5015116;28;20033;-84
2021/03/06 01:35:24;;;;;;;9.02;2.80;;;;;;;7.83;56.11;102406.38;5015043;28;20030;-83
2021/03/06 01:37:50;;;;;;;7.63;2.85;;;;;;;7.81;56.31;102391.63;5015093;28;20029;-84
2021/03/06 01:40:19;;;;;;;8.32;2.65;;;;;;;7.73;56.27;102389.19;5015007;28;20030;-84
2021/03/06 01:42:44;;;;;;;5.28;2.55;;;;;;;7.75;56.72;102400.47;5014995;28;20026;-84
2021/03/06 01:45:10;;;;;;;4.78;2.58;;;;;;;7.70;56.07;102391.88;5015102;28;20384;-84
2021/03/06 01:47:36;;;;;;;4.25;2.53;;;;;;;7.79;56.67;102393.41;5014942;28;20029;-84
2021/03/06 01:50:07;;;;;;;5.15;2.47;;;;;;;7.81;57.14;102392.47;5015068;28;20025;-83
2021/03/06 01:52:33;;;;;;;5.00;1.95;;;;;;;7.82;57.05;102395.94;5014818;28;20468;-84
2021/03/06 01:54:59;;;;;;;3.72;2.67;;;;;;;7.85;57.38;102399.34;5013573;28;20092;-84
2021/03/06 01:57:25;;;;;;;6.68;2.50;;;;;;;7.80;56.27;102390.78;5014720;28;20030;-83
2021/03/06 01:59:51;;;;;;;6.00;3.03;;;;;;;7.73;57.02;102395.28;5014657;28;20484;-83
2021/03/06 02:02:18;;;;;;;4.70;2.47;;;;;;;7.74;57.23;102393.50;5015057;28;20041;-83
2021/03/06 02:04:44;;;;;;;6.13;2.35;;;;;;;7.69;57.84;102396.25;5016656;28;20021;-83
2021/03/06 02:07:09;;;;;;;3.20;2.13;;;;;;;7.71;57.48;102398.84;5019681;28;20045;-83
2021/03/06 02:09:35;;;;;;;4.82;2.17;;;;;;;7.68;57.08;102396.28;5019212;28;20052;-83
2021/03/06 02:12:35;;;;;;;3.63;2.03;;;;;;;7.75;57.39;102393.47;5015868;28;20034;-84
2021/03/06 02:15:18;;;;;;;4.53;2.25;;;;;;;7.74;57.76;102391.78;5014844;28;20510;-83
2021/03/06 02:17:55;;;;;;;6.20;2.22;;;;;;;7.72;57.72;102382.22;5018813;28;20060;-83
2021/03/06 02:20:48;;;;;;;4.30;2.08;;;;;;;7.81;57.81;102387.25;5019035;28;20026;-83
2021/03/06 02:23:35;;;;;;;4.70;1.85;;;;;;;7.73;57.40;102378.72;5014423;28;20109;-83
2021/03/06 02:26:22;;;;;;;5.45;2.58;;;;;;;7.75;56.35;102377.78;5025186;28;20077;-83
2021/03/06 02:29:03;;;;;;;4.28;2.00;;;;;;;7.70;56.34;102381.41;5024208;28;20041;-83
2021/03/06 02:31:31;;;;;;;4.38;1.85;;;;;;;7.74;55.94;102381.31;5023478;28;20049;-84
2021/03/06 02:34:04;;;;;;;2.50;1.58;;;;;;;7.88;55.50;102372.28;5014887;28;20044;-83
2021/03/06 02:36:33;;;;;;;7.47;1.70;;;;;;;7.76;55.99;102370.81;5014484;28;20203;-83
2021/03/06 02:39:01;;;;;;;4.00;1.60;;;;;;;7.75;56.64;102371.72;5014427;28;20053;-84
2021/03/06 02:41:30;;;;;;;6.15;1.95;;;;;;;7.58;55.78;102369.50;5012999;28;20476;-84
2021/03/06 02:43:57;;;;;;;5.30;2.10;;;;;;;7.61;56.39;102373.81;5014231;28;20045;-84
2021/03/06 02:46:25;;;;;;;4.78;2.65;;;;;;;7.57;56.35;102372.16;5012937;28;20062;-84
2021/03/06 02:48:52;;;;;;;3.30;2.63;;;;;;;7.59;55.75;102371.22;5014066;28;20383;-83
2021/03/06 02:51:18;;;;;;;4.50;2.33;;;;;;;7.60;55.65;102372.06;5013783;28;20388;-84
2021/03/06 02:53:43;;;;;;;3.80;2.30;;;;;;;7.52;56.25;102375.75;5012495;28;20045;-84
2021/03/06 02:56:09;;;;;;;7.70;2.70;;;;;;;7.51;56.74;102381.88;5013896;28;20164;-83
2021/03/06 02:59:10;;;;;;;2.33;1.75;;;;;;;7.65;56.05;102375.44;5014161;28;20024;-83
2021/03/06 03:02:00;;;;;;;3.38;2.50;;;;;;;7.61;56.60;102377.28;5012924;28;20041;-83
2021/03/06 03:04:55;;;;;;;5.72;2.00;;;;;;;7.53;56.73;102374.84;5013820;28;20057;-84
2021/03/06 03:07:35;;;;;;;4.30;2.17;;;;;;;7.60;56.12;102374.69;4994215;28;20080;-83
2021/03/06 03:10:08;;;;;;;7.38;2.25;;;;;;;7.47;56.85;102359.31;5013436;28;20076;-83
2021/03/06 03:12:44;;;;;;;9.30;2.40;;;;;;;7.51;56.35;102368.78;5013460;28;20116;-83
2021/03/06 03:15:15;;;;;;;3.67;2.03;;;;;;;7.52;56.41;102356.56;5013542;28;20076;-83
2021/03/06 03:17:44;;;;;;;7.33;2.53;;;;;;;7.57;56.10;102361.72;5012241;28;20113;-83
2021/03/06 03:20:44;;;;;;;3.90;2.03;;;;;;;7.35;57.03;102357.84;5013288;28;20087;-83
2021/03/06 03:23:16;;;;;;;5.95;2.22;;;;;;;7.32;56.72;102357.03;5013162;28;20025;-82
2021/03/06 03:25:44;;;;;;;5.47;2.25;;;;;;;7.29;56.85;102355.38;5013312;28;20026;-83
2021/03/06 03:28:11;;;;;;;4.70;2.10;;;;;;;7.27;56.80;102345.84;5013139;28;20446;-82
2021/03/06 03:30:38;;;;;;;3.47;2.40;;;;;;;7.09;56.96;102348.00;5013304;28;20060;-83
2021/03/06 03:33:09;;;;;;;7.88;2.10;;;;;;;6.88;56.93;102345.84;5012925;28;20133;-83
2021/03/06 03:35:36;;;;;;;5.60;2.08;;;;;;;6.71;57.04;102347.06;5013122;28;20032;-82
2021/03/06 03:38:02;;;;;;;6.25;2.30;;;;;;;6.56;57.93;102349.97;5012845;28;20034;-82
2021/03/06 03:40:28;;;;;;;5.72;2.25;;;;;;;6.58;58.31;102348.19;5012876;28;20078;-82
2021/03/06 03:42:54;;;;;;;4.18;2.00;;;;;;;6.46;59.33;102358.88;5012496;28;20030;-82
2021/03/06 03:45:21;;;;;;;4.30;2.03;;;;;;;6.32;58.78;102351.31;5012919;28;20049;-82
2021/03/06 03:47:47;;;;;;;4.15;2.13;;;;;;;6.20;59.78;102348.94;5012892;28;20499;-82
2021/03/06 03:50:14;;;;;;;7.47;2.10;;;;;;;6.11;60.15;102349.97;5012676;28;20038;-83
2021/03/06 03:52:45;;;;;;;10.35;2.25;;;;;;;6.02;60.07;102350.97;5012752;28;20026;-82
2021/03/06 03:55:11;;;;;;;4.47;2.33;;;;;;;6.07;60.00;102356.13;5012826;28;20125;-82
2021/03/06 03:57:37;;;;;;;7.28;2.20;;;;;;;6.03;60.22;102357.06;5027958;28;20485;-82
2021/03/06 04:00:07;;;;;;;4.95;2.05;;;;;;;5.92;60.63;102350.28;5012537;28;20029;-82
2021/03/06 04:02:33;;;;;;;3.28;2.05;;;;;;;5.96;61.34;102351.09;5013125;28;20069;-82
2021/03/06 04:04:58;;;;;;;3.88;2.15;;;;;;;5.90;61.96;102349.41;5012595;28;20065;-82
2021/03/06 04:07:23;;;;;;;7.20;2.53;;;;;;;5.68;61.70;102353.28;5012601;28;20026;-82
2021/03/06 04:09:49;;;;;;;4.07;1.92;;;;;;;5.64;62.66;102356.81;5011163;28;20437;-82
2021/03/06 04:12:15;;;;;;;5.38;2.35;;;;;;;5.66;61.96;102355.03;5012321;28;20069;-82
2021/03/06 04:14:40;;;;;;;5.03;2.08;;;;;;;5.75;61.94;102347.94;5012350;28;20056;-82
2021/03/06 04:17:06;;;;;;;3.55;2.03;;;;;;;5.73;62.40;102360.13;5012822;28;20084;-82
2021/03/06 04:19:31;;;;;;;5.82;2.05;;;;;;;5.70;63.03;102361.94;5012423;28;20480;-82
2021/03/06 04:21:56;;;;;;;5.45;2.50;;;;;;;5.64;62.73;102360.28;5012201;28;20044;-85
2021/03/06 04:24:22;;;;;;;4.28;2.33;;;;;;;5.51;63.23;102356.13;5012241;28;20476;-85
2021/03/06 04:26:49;;;;;;;5.78;2.53;;;;;;;5.44;63.42;102360.59;5012245;28;20477;-85
2021/03/06 04:29:16;;;;;;;4.00;1.77;;;;;;;5.51;63.46;102367.44;5012310;28;20117;-85
2021/03/06 04:31:41;;;;;;;7.18;3.00;;;;;;;5.54;63.45;102366.53;5012318;28;20022;-82
2021/03/06 04:34:07;;;;;;;4.80;2.08;;;;;;;5.43;63.23;102368.41;5010944;28;20480;-82
2021/03/06 04:36:32;;;;;;;7.72;2.40;;;;;;;5.26;64.05;102360.88;5012222;28;20052;-82
2021/03/06 04:38:57;;;;;;;3.15;2.10;;;;;;;5.35;63.39;102371.13;5012136;28;20417;-82
2021/03/06 04:41:23;;;;;;;4.80;2.35;;;;;;;5.27;64.39;102365.19;5012042;28;20036;-85
2021/03/06 04:43:48;;;;;;;5.80;2.40;;;;;;;5.23;64.38;102372.19;5012159;28;20032;-85
2021/03/06 04:46:13;;;;;;;3.40;2.28;;;;;;;5.18;65.10;102373.16;5012103;28;20384;-85
2021/03/06 04:48:39;;;;;;;4.25;2.40;;;;;;;5.24;64.63;102362.63;5027466;28;20022;-85
2021/03/06 04:51:04;;;;;;;4.63;2.38;;;;;;;5.01;65.86;102368.16;5012088;28;20028;-85
2021/03/06 04:53:30;;;;;;;5.35;2.45;;;;;;;5.19;65.08;102369.66;5012062;28;20030;-85
2021/03/06 04:55:55;;;;;;;3.08;2.03;;;;;;;5.22;64.75;102369.63;5016199;28;20484;-84
2021/03/06 04:58:20;;;;;;;4.03;2.17;;;;;;;5.09;65.16;102372.38;5014417;28;20490;-85
2021/03/06 05:00:45;;;;;;;3.22;2.20;;;;;;;5.20;64.40;102377.44;5016023;28;20105;-84
2021/03/06 05:03:11;;;;;;;3.90;2.55;;;;;;;5.02;65.62;102383.75;5016546;28;20483;-84
2021/03/06 05:05:36;;;;;;;5.07;2.75;;;;;;;5.14;65.48;102382.75;5015830;28;20495;-85
2021/03/06 05:08:02;;;;;;;5.00;3.05;;;;;;;5.09;66.26;102379.31;5015837;28;20034;-84
2021/03/06 05:10:27;;;;;;;6.50;2.25;;;;;;;5.07;65.74;102375.88;5015994;28;20392;-85
2021/03/06 05:12:53;;;;;;;7.82;2.47;;;;;;;4.95;66.19;102371.69;5015536;28;20034;-85
2021/03/06 05:15:18;;;;;;;4.60;2.75;;;;;;;5.03;66.30;102367.25;5015666;28;20030;-85
2021/03/06 05:17:43;;;;;;;6.22;2.80;;;;;;;4.90;66.73;102376.13;5015939;28;20534;-85
2021/03/06 05:20:09;;;;;;;3.40;2.85;;;;;;;4.91;66.41;102376.06;5030937;28;20437;-84
2021/03/06 05:22:35;;;;;;;5.15;2.80;;;;;;;5.06;65.92;102382.00;5015762;28;20033;-85
2021/03/06 05:25:00;;;;;;;4.00;3.05;;;;;;;4.84;66.33;102378.78;5015312;28;20041;-85
2021/03/06 05:27:25;;;;;;;5.88;2.85;;;;;;;5.00;66.03;102380.31;5015529;28;20064;-84
2021/03/06 05:29:51;;;;;;;5.68;2.53;;;;;;;4.99;65.76;102382.94;5015371;28;20358;-85
2021/03/06 05:32:16;;;;;;;4.03;2.70;;;;;;;4.97;65.82;102376.00;5015238;28;20484;-84
2021/03/06 05:34:41;;;;;;;4.03;2.50;;;;;;;4.93;66.28;102383.88;5014196;28;20476;-84
2021/03/06 05:37:07;;;;;;;5.53;2.53;;;;;;;4.97;66.41;102380.34;5015333;28;20105;-84
2021/03/06 05:39:32;;;;;;;6.72;3.03;;;;;;;4.88;66.56;102386.53;5015369;28;20022;-84
2021/03/06 05:41:58;;;;;;;6.20;2.92;;;;;;;4.74;66.50;102384.09;5015090;28;20032;-85
2021/03/06 05:44:24;;;;;;;6.10;2.83;;;;;;;4.65;67.47;102378.16;5015118;28;20030;-85
2021/03/06 05:46:50;;;;;;;7.00;2.60;;;;;;;4.69;67.01;102379.84;5015194;28;20014;-84
2021/03/06 05:49:16;;;;;;;4.80;2.75;;;;;;;4.61;67.36;102384.28;5015419;28;20025;-84
2021/03/06 05:51:41;;;;;;;5.90;2.58;;;;;;;4.79;66.77;102386.66;5015004;28;20029;-84
2021/03/06 05:54:12;;;;;;;5.95;2.67;;;;;;;4.84;65.93;102378.78;5014919;28;20507;-84
2021/03/06 05:56:43;;;;;;;4.72;2.28;;;;;;;4.67;65.58;102382.44;5014784;28;20117;-84
2021/03/06 05:59:12;;;;;;;3.80;2.42;;;;;;;4.72;66.46;102378.06;5014858;28;20022;-84
2021/03/06 06:01:39;;;;;;;3.85;2.33;;;;;;;4.78;65.60;102379.72;5015194;28;20515;-84
2021/03/06 06:04:05;;;;;;;6.18;3.22;;;;;;;4.84;66.24;102383.97;5014990;28;20033;-84
2021/03/06 06:06:32;;;;;;;4.13;2.28;;;;;;;4.87;65.65;102377.00;5014320;28;20022;-84
2021/03/06 06:08:58;;;;;;;5.32;2.65;;;;;;;4.74;66.90;102378.91;5014644;28;20472;-84
2021/03/06 06:11:25;;;;;;;7.10;2.92;;;;;;;4.66;66.57;102369.44;5014512;28;20060;-85
2021/03/06 06:13:51;;;;;;;5.38;2.97;;;;;;;4.72;66.26;102372.84;5014678;28;20052;-84
2021/03/06 06:16:17;;;;;;;11.55;3.45;;;;;;;4.80;66.33;102377.97;5014735;28;20423;-84
2021/03/06 06:18:44;;;;;;;6.35;3.13;;;;;;;4.81;66.20;102378.81;5014760;28;20034;-84
2021/03/06 06:21:35;;;;;;;8.40;3.47;;;;;;;4.61;67.44;102369.50;5014599;28;20033;-84
2021/03/06 06:24:22;;;;;;;10.65;3.38;;;;;;;4.61;66.96;102372.13;5013129;28;20036;-84
2021/03/06 06:27:02;;;;;;;3.92;3.08;;;;;;;4.61;67.01;102369.50;5014322;28;20045;-85
2021/03/06 06:29:42;;;;;;;9.90;3.60;;;;;;;4.54;67.00;102368.72;5014409;28;20483;-85
2021/03/06 06:32:10;;;;;;;6.20;3.08;;;;;;;4.63;67.21;102364.28;5014093;28;20018;-85
2021/03/06 06:34:37;;;;;;;8.70;3.47;;;;;;;4.65;67.15;102372.94;5011594;28;20026;-85
2021/03/06 06:37:12;;;;;;;11.52;5.97;;;;;;;4.51;67.55;102375.69;5013666;28;20547;-85
2021/03/06 06:39:38;;;;;;;6.18;3.58;;;;;;;4.36;67.62;102362.00;5012046;28;20472;-84
2021/03/06 06:42:04;;;;;;;11.13;3.42;;;;;;;4.47;68.18;102363.63;5013480;28;20040;-85
2021/03/06 06:44:32;;;;;;;4.55;3.00;;;;;;;4.39;67.55;102370.66;5013755;28;20030;-85
2021/03/06 06:48:27;;;;;;;6.13;3.10;;;;;;;4.39;67.44;102371.50;5065638;28;20404;-83
2021/03/06 06:51:06;;;;;;;5.45;3.10;;;;;;;4.40;68.34;102377.56;5069012;28;20033;-83
2021/03/06 06:53:32;;;;;;;8.45;3.85;;;;;;;4.45;68.29;102365.38;5066994;28;20028;-85
2021/03/06 06:55:57;;;;;;;6.65;3.78;;;;;;;4.48;67.85;102375.72;5067704;28;20386;-83
2021/03/06 06:58:35;;;;;;;4.45;3.45;;;;;;;4.43;68.03;102378.38;5063181;28;20045;-83
2021/03/06 07:04:03;;;;;;;6.57;3.88;;;;;;;4.46;67.74;102383.53;5067176;28;20048;-91
2021/03/06 07:06:29;;;;;;;8.98;4.18;;;;;;;4.31;68.86;102368.97;5068771;28;20103;-92
2021/03/06 07:09:14;;;;;;;6.63;4.18;;;;;;;4.49;69.78;102377.47;5068425;28;20023;-92
2021/03/06 07:11:41;;;;;;;5.88;4.07;;;;;;;4.49;68.43;102367.91;5069062;28;20025;-90
2021/03/06 07:14:07;;;;;;;4.35;3.58;;;;;;;4.41;68.73;102374.94;5082558;28;20162;-91
2021/03/06 07:17:11;;;;;;;6.55;3.58;;;;;;;4.60;67.80;102370.41;5067812;28;20076;-92
2021/03/06 07:19:41;;;;;;;6.40;3.42;;;;;;;4.69;67.55;102383.28;5010885;28;20026;-92
2021/03/06 07:22:06;;;;;;;11.50;3.67;;;;;;;4.84;66.76;102391.78;4989996;28;20041;-91
2021/03/06 07:24:32;;;;;;;8.88;3.03;;;;;;;4.80;66.49;102382.28;5024311;28;20044;-91
2021/03/06 07:26:58;;;;;;;5.05;3.13;;;;;;;4.74;66.75;102391.91;5067433;28;20033;-92
2021/03/06 07:29:25;;;;;;;7.32;3.50;;;;;;;4.91;67.24;102401.25;5065916;28;20056;-91
2021/03/06 07:31:52;;;;;;;7.32;4.10;;;;;;;4.94;66.95;102393.41;5067515;28;20021;-91
2021/03/06 07:34:25;;;;;;;7.03;2.97;;;;;;;5.08;67.27;102407.13;5066193;28;20035;-92
2021/03/06 07:37:13;;;;;;;8.48;4.20;;;;;;;5.19;67.07;102408.72;5068123;28;20028;-92
2021/03/06 07:39:41;;;;;;;9.00;4.13;;;;;;;5.29;67.57;102402.47;5065538;28;20025;-92
2021/03/06 07:42:15;;;;;;;7.07;3.40;;;;;;;5.52;67.36;102416.03;5067586;28;20071;-91
2021/03/06 07:44:42;;;;;;;8.75;3.38;;;;;;;5.84;66.86;102414.69;5065919;28;20024;-91
2021/03/06 07:47:12;;;;;;;7.38;3.50;;;;;;;6.25;65.30;102405.34;5065745;28;20105;-92
2021/03/06 07:49:40;;;;;;;5.35;3.42;;;;;;;6.25;65.23;102415.78;5067262;28;20047;-92
2021/03/06 07:52:06;;;;;;;6.70;3.53;;;;;;;6.42;64.49;102412.00;5065721;28;20032;-91
2021/03/06 07:54:33;;;;;;;6.72;2.88;;;;;;;6.83;63.54;102407.72;5066353;28;20033;-91
2021/03/06 07:56:59;;;;;;;8.48;3.58;;;;;;;7.32;61.69;102423.22;5066974;28;20024;-90
2021/03/06 07:59:50;;;;;;;6.85;3.15;;;;;;;7.83;59.87;102419.44;5054816;28;20391;-89
2021/03/06 08:02:33;;;;;;;8.80;3.00;;;;;;;8.38;58.38;102421.59;5052837;28;20037;-91
2021/03/06 08:04:59;;;;;;;8.07;3.38;;;;;;;8.32;57.32;102425.22;5069632;28;20266;-91
2021/03/06 08:07:41;;;;;;;5.68;3.42;;;;;;;8.58;56.60;102414.06;5054878;28;20501;-88
2021/03/06 08:10:07;;;;;;;;;;;;;;;9.36;54.59;102421.44;5077578;28;20029;-90
2021/03/06 08:12:36;;;;;;;9.50;3.78;;;;;;;9.33;54.13;102416.28;5057646;28;20336;-90
2021/03/06 08:15:28;;;;;;;4.50;2.75;;;;;;;9.17;53.28;102420.28;5051686;28;20429;-90
2021/03/06 08:17:54;;;;;;;7.13;2.80;;;;;;;8.90;53.67;102428.88;5053239;28;20021;-90
2021/03/06 08:20:28;;;;;;;5.50;2.83;;;;;;;8.81;52.72;102407.34;5053199;28;20082;-91
2021/03/06 08:23:22;;;;;;;9.00;3.70;;;;;;;8.99;52.74;102419.91;5053466;28;20531;-90
2021/03/06 08:26:08;;;;;;;6.88;3.13;;;;;;;8.96;52.36;102422.59;5052232;28;20031;-90
2021/03/06 08:28:34;;;;;;;6.30;2.55;;;;;;;8.68;53.53;102423.38;5052916;28;20025;-90
2021/03/06 08:31:38;;;;;;;7.30;2.40;;;;;;;8.77;52.98;102414.44;5053231;28;20036;-91
2021/03/06 08:34:39;;;;;;;4.82;2.30;;;;;;;9.05;50.90;102413.63;5053578;28;20063;-91
2021/03/06 08:37:19;;;;;;;3.13;1.67;;;;;;;9.05;50.63;102421.50;5011413;28;20034;-91
2021/03/06 08:40:01;;;;;;;4.18;1.77;;;;;;;9.14;49.94;102421.19;5047561;28;20152;-91
2021/03/06 08:42:27;;;;;;;10.35;1.75;;;;;;;9.09;50.14;102423.97;5053221;28;20506;-88
2021/03/06 08:44:54;;;;;;;6.57;2.30;;;;;;;9.06;50.84;102418.84;5051522;28;20068;-90
2021/03/06 08:47:27;;;;;;;4.40;2.28;;;;;;;9.31;49.52;102428.56;5052883;28;20043;-90
2021/03/06 08:49:54;;;;;;;5.22;2.03;;;;;;;9.27;50.51;102434.81;5052404;28;20031;-91
2021/03/06 08:52:27;;;;;;;7.38;1.90;;;;;;;9.45;49.37;102426.38;5053391;28;20013;-91
2021/03/06 08:54:53;;;;;;;3.40;1.92;;;;;;;9.58;49.36;102431.22;5051887;28;20037;-91
2021/03/06 08:57:39;;;;;;;7.88;2.10;;;;;;;9.55;49.65;102426.09;5053152;28;20025;-90
2021/03/06 09:00:27;;;;;;;6.65;2.10;;;;;;;10.10;49.13;102427.78;5067231;28;20025;-92
2021/03/06 09:02:53;;;;;;;6.63;2.38;;;;;;;10.02;48.82;102426.34;5067741;22;20157;-85
2021/03/06 09:05:28;;;;;;;3.33;1.60;;;;;;;10.96;47.01;102426.56;5062562;28;20108;-83
2021/03/06 09:07:55;;;;;;;7.22;2.20;;;;;;;11.74;43.82;102424.41;5072086;28;20040;-83
2021/03/06 09:10:24;;;;;;;4.55;1.92;;;;;;;11.88;43.85;102428.19;5052823;28;20032;-83
2021/03/06 09:13:01;;;;;;;4.15;2.03;;;;;;;12.94;41.92;102424.56;5073265;28;20017;-83
2021/03/06 09:15:35;;;;;;;7.97;2.22;;;;;;;13.08;41.23;102417.72;5063220;28;20108;-83
2021/03/06 09:18:02;;;;;;;3.58;1.63;;;;;;;13.91;38.81;102417.34;5059110;28;20028;-83
2021/03/06 09:20:30;;;;;;;4.65;1.70;;;;;;;13.42;40.15;102421.44;5062596;28;20025;-83
2021/03/06 09:22:55;;;;;;;4.55;1.55;;;;;;;13.35;40.69;102414.75;5073230;28;20024;-83
2021/03/06 09:25:38;;;;;;;4.40;1.80;;;;;;;13.23;40.32;102423.19;5065021;28;20029;-83
2021/03/06 09:28:10;;;;;;;7.93;2.45;;;;;;;13.01;41.00;102416.31;5059903;28;20025;-83
2021/03/06 09:30:41;;;;;;;4.32;1.80;;;;;;;13.09;41.52;102418.56;5053051;28;20028;-83
2021/03/06 09:33:32;;;;;;;4.25;1.65;;;;;;;12.93;41.08;102418.41;5057749;28;20021;-83
2021/03/06 09:36:07;;;;;;;7.05;1.63;;;;;;;12.89;42.01;102412.47;5053943;28;20078;-83
2021/03/06 09:38:41;;;;;;;12.93;2.35;;;;;;;12.62;40.74;102411.91;5053115;28;20052;-83
2021/03/06 09:41:06;;;;;;;5.18;1.70;;;;;;;13.26;40.80;102421.28;5052219;28;20380;-83
2021/03/06 09:43:33;;;;;;;4.13;1.52;;;;;;;13.49;38.73;102422.00;5072925;28;20024;-83
2021/03/06 09:46:01;;;;;;;4.07;1.60;;;;;;;13.98;38.13;102418.72;5065945;28;20025;-83
2021/03/06 09:48:27;;;;;;;5.63;1.67;;;;;;;14.63;36.52;102417.16;5052602;28;20120;-83
2021/03/06 09:50:59;;;;;;;3.15;1.08;;;;;;;14.36;36.30;102414.16;5037066;28;20033;-84
2021/03/06 09:53:26;;;;;;;;;;;;;;;14.72;35.47;102417.59;5063784;28;20109;-84
2021/03/06 09:56:07;;;;;;;5.15;1.30;;;;;;;15.18;34.39;102412.44;5053121;28;19912;-83
2021/03/06 09:58:32;;;;;;;4.15;1.48;;;;;;;15.76;34.37;102411.00;5052661;28;20024;-84
2021/03/06 10:01:33;;;;;;;3.22;1.40;;;;;;;16.61;32.75;102412.09;5053259;28;20025;-85
2021/03/06 10:04:08;;;;;;;3.38;1.33;;;;;;;16.60;32.55;102405.06;5010385;28;20052;-85
2021/03/06 10:06:36;;;;;;;4.53;1.63;;;;;;;16.92;33.31;102403.09;5048135;28;20032;-85
2021/03/06 10:09:05;;;;;;;3.03;1.13;;;;;;;16.95;32.88;102410.88;5051924;28;20028;-85
2021/03/06 10:11:36;;;;;;;1.95;1.42;;;;;;;16.58;33.96;102404.31;5038852;28;20033;-85
2021/03/06 10:14:03;;;;;;;4.30;1.70;;;;;;;16.16;33.98;102406.84;5048060;28;20032;-85
2021/03/06 10:16:29;;;;;;;4.45;1.42;;;;;;;16.10;33.85;102409.00;5052246;28;20506;-85
2021/03/06 10:19:00;;;;;;;5.35;1.70;;;;;;;16.05;34.99;102409.25;5052060;28;20086;-85
2021/03/06 10:21:26;;;;;;;5.18;1.70;;;;;;;16.34;34.83;102396.06;5051750;28;20021;-85
2021/03/06 10:24:01;;;;;;;2.47;1.40;;;;;;;16.14;33.28;102398.13;5051675;28;20128;-85
2021/03/06 10:26:26;;;;;;;3.85;1.40;;;;;;;16.17;32.88;102408.56;5051733;28;20021;-85
2021/03/06 10:28:55;;;;;;;4.20;1.88;;;;;;;16.08;32.90;102397.66;5050278;28;20075;-85
2021/03/06 10:31:24;;;;;;;2.92;0.60;;;;;;;15.42;31.49;102394.34;5051494;28;20040;-84
2021/03/06 10:33:49;;;;;;;5.10;1.00;;;;;;;15.47;32.03;102393.13;5033733;28;20037;-83
2021/03/06 10:36:16;;;;;;;4.22;0.68;;;;;;;15.72;30.12;102391.75;5051359;28;20079;-83
2021/03/06 10:38:42;;;;;;;3.63;0.80;;;;;;;15.59;30.55;102393.38;5050882;28;20055;-83
2021/03/06 10:41:19;;;;;;;3.47;0.45;;;;;;;15.41;30.85;102393.47;5051225;28;20029;-82
2021/03/06 10:43:53;;;;;;;1.27;0.35;;;;;;;16.71;28.38;102391.16;5050723;28;20383;-83
2021/03/06 10:46:30;;;;;;;1.42;0.82;;;;;;;16.70;27.07;102384.97;5031239;28;20364;-83
2021/03/06 10:49:03;;;;;;;4.20;0.50;;;;;;;16.40;27.92;102406.31;5051281;28;20017;-83
2021/03/06 10:51:53;;;;;;;2.55;0.50;;;;;;;15.83;27.51;102393.78;5051564;28;20033;-84
2021/03/06 10:54:21;;;;;;;2.72;0.30;;;;;;;15.97;27.21;102390.31;5051305;28;20021;-88
2021/03/06 10:56:47;;;;;;;2.30;0.60;;;;;;;14.26;29.31;102382.06;5051090;28;20052;-89
2021/03/06 10:59:13;;;;;;;1.58;0.60;;;;;;;14.52;30.87;102393.06;5051005;28;20060;-84
2021/03/06 11:04:24;;;;;;;2.30;0.47;;;;;;;13.89;30.60;102383.94;5029551;28;20045;-89
2021/03/06 11:06:54;;;;;;;2.25;0.43;;;;;;;14.01;29.35;102381.63;5046459;28;20036;-89
2021/03/06 11:09:24;;;;;;;1.95;0.55;;;;;;;13.67;29.95;102370.97;5030524;28;20026;-90
2021/03/06 11:11:49;;;;;;;6.18;0.70;;;;;;;13.63;30.54;102371.19;5030922;28;20021;-89
2021/03/06 11:14:23;;;;;;;5.38;0.60;;;;;;;13.85;30.94;102377.09;5031341;28;20450;-89
2021/03/06 11:16:48;;;;;;;2.00;0.68;;;;;;;13.57;31.68;102382.06;5027294;28;20090;-89
2021/03/06 11:19:14;;;;;;;1.98;0.75;;;;;;;13.28;32.58;102376.38;5030715;28;20034;-88
2021/03/06 11:21:39;;;;;;;1.85;0.65;;;;;;;13.25;31.60;102369.47;5044942;28;20022;-91
2021/03/06 11:24:05;;;;;;;3.15;1.30;;;;;;;13.63;31.60;102373.84;5048744;28;20045;-90
2021/03/06 11:26:30;;;;;;;1.40;0.82;;;;;;;14.29;30.98;102366.03;5050314;28;20033;-91
2021/03/06 11:28:56;;;;;;;0.52;0.30;;;;;;;13.74;32.15;102374.13;5049558;28;20031;-92
2021/03/06 11:31:22;;;;;;;1.65;0.93;;;;;;;13.85;32.61;102371.81;5050615;28;20068;-90
2021/03/06 11:33:48;;;;;;;3.47;0.50;;;;;;;14.40;31.24;102377.84;5052164;28;20021;-92
2021/03/06 11:36:13;;;;;;;1.27;0.52;;;;;;;13.49;30.03;102363.97;5053881;28;20017;-93
2021/03/06 11:38:39;;;;;;;1.80;0.50;;;;;;;12.53;32.55;102372.78;5054694;28;20052;-93
2021/03/06 11:41:05;;;;;;;2.35;0.73;;;;;;;13.48;31.75;102359.59;5053953;28;20021;-92
2021/03/06 11:43:31;;;;;;;2.58;0.65;;;;;;;13.27;31.77;102369.41;5054557;28;20035;-92
2021/03/06 11:45:56;;;;;;;3.75;0.45;;;;;;;13.20;31.98;102365.31;5055883;28;20218;-93
2021/03/06 11:48:21;;;;;;;2.47;0.90;;;;;;;12.97;33.15;102367.25;5058809;28;20025;-90
2021/03/06 11:50:49;;;;;;;2.30;0.75;;;;;;;12.75;33.19;102371.81;5058219;28;20029;-90